»·PEaware :: N32314 KSBA-KONT

N32314 :: KSBA-KONT

FLIGHT INFORMATION

Flight Status: Arrived
Operator: Privately registered:
United States
More flights under this callsign
Pilot: John O. (31453)
Aircraft: CESSNA 172 SKYHAWK
(C172)
More flights by this aircraft type
Origin: KSBA Santa Barbara Mun
United States
Destination: KONT Ontario Intl
United States
More flights between these airports :: More routes between these airports
Route: +
File this flight plan on PilotEdge
Remarks:
Altitude:
(Current/Filed)
5,500ft
Speed:
(Current/Filed)
0kts
Departed: 26-Sep-20 10:32 AM
Arrived: 26-Sep-20 11:39 AM
Distance/Time
Traveled:
6855nm/1:06
Distance/Time
To Go:
Arrived

Flight Plot

Page will automatically refresh every two minutes.


Map Options




Map Legend


Flown Route
Filed Route
Departure Airport
Arrival Airport
Navaid (VOR, NDB)
Fix

Horizontal Profiles

Position Reports

Time Latitude Longitude Heading Altitude Ground
Speed
26-Sep-20 10:30 34.359372 -118.916264 93 7465ft 126kts
26-Sep-20 10:31 34.359630 -118.875277 76 7463ft 127kts
26-Sep-20 10:32 34.384900 -118.854619 47 7469ft 125kts
26-Sep-20 10:34 34.411827 -118.827317 38 7465ft 126kts
26-Sep-20 10:35 34.438045 -118.801557 38 7461ft 126kts
26-Sep-20 10:36 34.464282 -118.775802 38 7711ft 112kts
26-Sep-20 10:37 34.487056 -118.753430 38 8102ft 107kts
26-Sep-20 10:38 34.509339 -118.731666 37 8488ft 106kts
26-Sep-20 10:39 34.532345 -118.709299 38 8889ft 105kts
26-Sep-20 10:40 34.554485 -118.687774 37 9281ft 106kts
26-Sep-20 10:41 34.578524 -118.664432 38 9456ft 119kts
26-Sep-20 10:42 34.605183 -118.638601 38 9463ft 124kts
26-Sep-20 10:43 34.632431 -118.612167 37 9463ft 125kts
26-Sep-20 10:44 34.659806 -118.585638 38 9464ft 126kts
26-Sep-20 10:45 34.656107 -118.550819 79 9460ft 126kts
26-Sep-20 10:46 34.657149 -118.509723 94 9465ft 125kts
26-Sep-20 10:47 34.654633 -118.466817 94 9383ft 128kts
26-Sep-20 10:48 34.652243 -118.425532 94 9378ft 126kts
26-Sep-20 10:49 34.649795 -118.383009 94 9379ft 125kts
26-Sep-20 10:50 34.649927 -118.340892 75 9375ft 126kts
26-Sep-20 10:50 34.648222 -118.305610 94 9378ft 125kts
26-Sep-20 10:51 34.645844 -118.264965 94 9380ft 125kts
26-Sep-20 10:52 34.643351 -118.222654 94 9379ft 125kts
26-Sep-20 10:54 34.640530 -118.174845 94 9379ft 126kts
26-Sep-20 10:54 34.638442 -118.139482 94 9380ft 126kts
26-Sep-20 10:55 34.635943 -118.097115 94 9379ft 125kts
26-Sep-20 10:56 34.633439 -118.054728 94 9379ft 126kts
26-Sep-20 10:57 34.630928 -118.012222 94 9380ft 126kts
26-Sep-20 10:58 34.628423 -117.969837 94 9379ft 126kts
26-Sep-20 10:59 34.625913 -117.927324 94 9380ft 126kts
26-Sep-20 11:00 34.623374 -117.884416 94 9149ft 130kts
26-Sep-20 11:01 34.620764 -117.840260 94 8648ft 131kts
26-Sep-20 11:02 34.618156 -117.796077 94 8148ft 131kts
26-Sep-20 11:03 34.615701 -117.754419 94 7667ft 126kts
26-Sep-20 11:04 34.612896 -117.712569 101 7272ft 123kts
26-Sep-20 11:05 34.610411 -117.674232 93 7377ft 117kts
26-Sep-20 11:06 34.608464 -117.633622 93 7379ft 121kts
26-Sep-20 11:07 34.606454 -117.592690 93 7380ft 121kts
26-Sep-20 11:08 34.604477 -117.553271 93 7379ft 121kts
26-Sep-20 11:09 34.602382 -117.512304 93 7380ft 121kts
26-Sep-20 11:10 34.597912 -117.471673 93 7382ft 121kts
26-Sep-20 11:11 34.595833 -117.430790 93 7380ft 121kts
26-Sep-20 11:12 34.590343 -117.391078 128 7379ft 121kts
26-Sep-20 11:13 34.561573 -117.384501 173 7380ft 119kts
26-Sep-20 11:14 34.528450 -117.378952 173 7380ft 120kts
26-Sep-20 11:15 34.495437 -117.373406 173 7380ft 120kts
26-Sep-20 11:16 34.462291 -117.367842 173 7380ft 120kts
26-Sep-20 11:17 34.429263 -117.362309 173 7380ft 120kts
26-Sep-20 11:18 34.396149 -117.356756 173 7380ft 119kts
26-Sep-20 11:19 34.363167 -117.351237 173 7379ft 119kts
26-Sep-20 11:20 34.330041 -117.345696 173 7379ft 119kts
26-Sep-20 11:21 34.297050 -117.340180 173 7377ft 119kts
26-Sep-20 11:22 34.263991 -117.334660 173 7381ft 119kts
26-Sep-20 11:23 34.230596 -117.329077 173 7382ft 122kts
26-Sep-20 11:24 34.195920 -117.323304 173 7141ft 128kts
26-Sep-20 11:25 34.164504 -117.318065 173 6738ft 108kts
26-Sep-20 11:26 34.134938 -117.318217 204 6340ft 107kts
26-Sep-20 11:27 34.107369 -117.332804 204 5937ft 108kts
26-Sep-20 11:28 34.080797 -117.349590 216 5537ft 108kts
26-Sep-20 11:29 34.062933 -117.376330 237 5381ft 95kts
26-Sep-20 11:30 34.052479 -117.404336 246 5379ft 89kts
26-Sep-20 11:31 34.043658 -117.432262 257 5382ft 89kts
26-Sep-20 11:32 34.039907 -117.464778 268 4657ft 106kts
26-Sep-20 11:33 34.051998 -117.498990 286 3102ft 91kts
26-Sep-20 11:34 34.055563 -117.529919 270 2197ft 94kts
26-Sep-20 11:35 34.055009 -117.555950 267 1523ft 69kts
26-Sep-20 11:36 34.055025 -117.579929 270 1058ft 67kts
26-Sep-20 11:37 34.054956 -117.598377 270 934ft 46kts
26-Sep-20 11:38 34.054007 -117.602741 237 935ft 10kts
26-Sep-20 11:39 34.053739 -117.612092 222 941ft 17kts
26-Sep-20 11:40 34.052758 -117.612500 10 940ft 0kts
26-Sep-20 11:41 0.000408 0.013975 359 3ft 0kts
26-Sep-20 11:42 0.000408 0.013975 0 3ft 0kts
26-Sep-20 11:43 0.000408 0.013975 0 3ft 0kts
26-Sep-20 11:44 0.000408 0.013975 0 3ft 0kts
26-Sep-20 11:45 0.000408 0.013975 0 3ft 0kts
26-Sep-20 11:46 0.000408 0.013975 0 3ft 0kts
26-Sep-20 11:47 0.000408 0.013975 0 3ft 0kts
26-Sep-20 11:48 0.000408 0.013975 0 3ft 0kts
26-Sep-20 11:49 0.000408 0.013975 0 3ft 0kts
26-Sep-20 11:50 0.000408 0.013975 0 3ft 0kts
26-Sep-20 11:51 0.000408 0.013975 0 3ft 0kts
26-Sep-20 11:52 0.000408 0.013975 0 3ft 0kts

Navigation Log

Ident Type
Flight plan parsing failed, navigation log unavailable